TAF EHBK
EHBK 270515Z 2706/2812 23007KT 9999 BKN009 BECMG 2706/2708 SCT020 BECMG 2800/2803 4000 BR BKN003 PROB30 2800/2812 2000 DZRA -RASN BKN001=
METAR EHBK
EHBK 270755Z AUTO 19007KT 9999 BKN028 BKN033 01/00 Q0988 NOSIG=
EHBK 270725Z AUTO 20006KT 9999 FEW033 01/M00 Q0987 NOSIG=
EHBK 270655Z AUTO 19006KT 130V210 9000 NCD 02/01 Q0987 NOSIG=
COR EHBK 270625Z AUTO 19007KT 9000 FEW036 01/00 Q0987 NOSIG=
EHBK 270555Z AUTO 22008KT 9999 BKN008 OVC009 02/01 Q0986 BECMG SCT020=
WC EHBK
WS EHBK
WV EHBK